Fairmont, NC (28340)

4:40 PM EDT on August 30, 2015 (GMT -0400)
Lumberton Municipal | | Change Station
CLOSE
Current Station
Airport
Location: Lumberton,
Elevation: 125 ft
Nearby Weather Stations

Elev 125 ft 34.61 °N, 79.06 °W | Updated 6 minutes ago

Rain
Rain
73 °F
Feels Like 73 °F
N
5
Wind Variable Wind from SSE

Today
High -- | Low -- °F
--% Chance of Precip.
Yesterday
High -- | Low -- °F
Precip. -- in
6:47 AM 7:45 PM
Full, 98% visible
Pressure 30.16 in
Visibility 2.5 miles
Clouds Few 8000 ft
Mostly Cloudy 10000 ft
Overcast 11000 ft
Dew Point 69 °F
Humidity 87%
Rainfall 0.01 in
Snow Depth Not available.
UV 1 out of 12
Pollen 4.90 out of 12
Air Quality Not available.
Flu Activity Not available.
SPECI KLBT 302034Z AUTO 16004KT 2 1/2SM RA BR FEW080 BKN100 OVC110 23/21 A3016 RMK AO2 P0008 T02280206
Pressure 30.16 in
Visibility 2.5 miles
Clouds Few 8000 ft
Mostly Cloudy 10000 ft
Overcast 11000 ft
Dew Point 69 °F
Humidity 87%
Rainfall 0.01 in
Snow Depth Not available.
UV 1 out of 12
Pollen 4.90 out of 12
Air Quality Not available.
Flu Activity Not available.
SPECI KLBT 302034Z AUTO 16004KT 2 1/2SM RA BR FEW080 BKN100 OVC110 23/21 A3016 RMK AO2 P0008 T02280206

10-Day Weather Forecast

×

Almanac

Astronomy

Aug. 30, 2015 Rise Set
Actual Time
Civil Twilight
Nautical Twilight
Astronomical Twilight
Moon
Length of Visible Light
Length of Day
Tomorrow will be .
, % of the Moon is Illuminated

Today's Extremes

State Highs State Lows

Community

WunderPhotos

Upload Photos

1,851,057 photos uploaded!

WunderBlogs® & News

Nearby

Air Quality

  Air Quality AQ Index Pollutant
Not available.

Snow Depth

Station Depth Elevation

Earthquake Activity

City Distance Mag. Time & Date
Minimum magnitude displayed is 2.5.

Coastal Water Temperatures

Place Temperature

Stations

Nearby Weather Stations

Station Location Temp. Windchill Dew Point Humidity Wind Precip. Elev Updated Type